Terminal Aerodrome Forecast
Issued by NWS

Home | Current Version | Previous Version | Text Only | Print | Product List | Glossary On
Versions: 1 2 3 4 5 6 7 8 9 10 11 12
972
FTUS43 KMQT 252328
TAFCMX
TAF
KCMX 252328Z 2600/2624 25006KT P6SM SCT250
     FM261300 27011KT P6SM BKN150
     FM261900 30014G21KT P6SM VCSH BKN035
     FM262000 32015G21KT P6SM VCSH OVC020
     FM262200 33013KT P6SM BKN035=

USA.gov is the U.S. government's official web portal to all federal, state and local government web resources and services.